Terminal Aerodrome Forecast
Issued by NWS Atlanta, GA

Home | Current Version | Previous Version | Text Only | Print | Product List | Glossary On
Versions: 1 2 3 4 5 6 7 8 9 10 11 12 13 14 15 16 17 18 19 20 21 22
000
FTUS42 KFFC 241100
TAFCSG
TAF
KCSG 241126Z 2412/2512 24003KT P6SM FEW040
     FM241500 24006KT P6SM SCT040
     FM241800 26008G16KT P6SM VCSH BKN045
     FM250200 28006KT P6SM VCSH BKN050
     FM250500 29005KT P6SM SCT060 BKN100=

USA.gov is the U.S. government's official web portal to all federal, state and local government web resources and services.